createdAt,value
2018-07-05T19:42:24.598Z,100792.95
2018-07-05T19:45:04.271Z,100802.52
2018-07-05T19:47:43.961Z,100802.95
2018-07-05T19:50:23.649Z,100810.55
2018-07-05T19:53:03.495Z,100824.09
2018-07-05T19:55:43.270Z,100829.41
2018-07-05T19:58:23.046Z,100827.94
2018-07-05T20:01:02.681Z,100839.25
2018-07-05T20:03:42.532Z,100842.50
2018-07-05T20:06:22.325Z,100843.94
2018-07-05T20:09:02.069Z,100856.73
2018-07-05T20:11:47.317Z,100856.54
2018-07-05T20:14:27.211Z,100857.09
2018-07-05T20:17:06.876Z,100867.44
2018-07-05T20:19:46.615Z,100866.70
2018-07-05T20:22:26.441Z,100870.58
2018-07-05T20:25:06.100Z,100869.04
2018-07-05T20:27:45.858Z,100878.28
2018-07-05T20:30:25.755Z,100882.38
2018-07-05T20:33:05.408Z,100889.70
2018-07-05T20:35:45.247Z,100890.45
2018-07-05T20:38:24.757Z,100891.58
2018-07-05T20:41:04.351Z,100895.73
2018-07-05T20:43:44.104Z,100889.05
2018-07-05T20:46:23.957Z,100893.76
2018-07-05T20:49:03.720Z,100898.14
2018-07-05T20:51:43.660Z,100904.61
2018-07-05T20:54:23.496Z,100910.42
2018-07-05T20:57:03.223Z,100908.17
2018-07-05T20:59:43.064Z,100906.98
2018-07-05T21:04:01.767Z,100918.28
2018-07-05T21:06:41.380Z,100918.69
2018-07-05T21:09:21.167Z,100922.64
2018-07-05T21:12:00.850Z,100929.16
2018-07-05T21:14:40.571Z,100937.34
2018-07-05T21:17:20.233Z,100939.55
2018-07-05T21:20:00.097Z,100946.97
2018-07-05T21:22:39.923Z,100945.56
2018-07-05T21:25:19.719Z,100950.02
2018-07-05T21:27:59.524Z,100941.06
2018-07-05T21:30:39.315Z,100944.47
2018-07-05T21:33:34.034Z,100954.90
2018-07-05T21:36:13.864Z,100952.48
2018-07-05T21:38:53.727Z,100954.84
2018-07-05T21:41:33.343Z,100958.17
2018-07-05T21:44:13.044Z,100956.73
2018-07-05T21:46:52.812Z,100959.31
2018-07-05T21:49:32.524Z,100970.78
2018-07-05T21:52:12.347Z,100974.59
2018-07-05T21:54:52.133Z,100979.26
2018-07-05T21:57:31.870Z,100979.06
2018-07-05T22:00:11.518Z,100973.64
2018-07-05T22:02:51.455Z,100974.12
2018-07-05T22:05:31.219Z,100980.03
2018-07-05T22:08:10.906Z,100980.05
2018-07-05T22:10:50.748Z,100985.33
2018-07-05T22:13:30.417Z,100993.45
2018-07-05T22:16:10.079Z,100986.88
2018-07-05T22:18:55.178Z,100990.30
2018-07-05T22:21:39.068Z,100995.96
2018-07-05T22:24:24.240Z,101000.80
2018-07-05T22:27:03.948Z,100997.61
2018-07-05T22:29:49.220Z,101000.08
2018-07-05T22:32:28.916Z,101004.80
2018-07-05T22:35:08.577Z,101008.70
2018-07-05T22:37:48.382Z,101012.00
2018-07-05T22:40:28.224Z,101017.34
2018-07-05T22:43:08.003Z,101016.65
2018-07-05T22:45:47.809Z,101014.91
2018-07-05T22:48:27.486Z,101014.47
2018-07-05T22:51:07.128Z,101011.61
2018-07-05T22:53:46.836Z,101019.52
2018-07-05T22:56:26.620Z,101025.91
2018-07-05T22:59:06.390Z,101024.69
2018-07-05T23:01:46.176Z,101026.10
2018-07-05T23:04:25.888Z,101030.86
2018-07-05T23:07:05.590Z,101032.90
2018-07-05T23:09:45.164Z,101032.79
2018-07-05T23:12:24.792Z,101030.96
2018-07-05T23:15:04.572Z,101044.52
2018-07-05T23:17:44.440Z,101038.97
2018-07-05T23:20:24.024Z,101048.52
2018-07-05T23:23:03.703Z,101047.50
2018-07-05T23:25:43.367Z,101057.16
2018-07-05T23:28:23.186Z,101045.83
2018-07-05T23:31:03.056Z,101051.18
2018-07-05T23:33:42.750Z,101054.77
2018-07-05T23:36:22.497Z,101047.14
2018-07-05T23:39:02.340Z,101051.47
2018-07-05T23:41:41.987Z,101045.48
2018-07-05T23:44:21.784Z,101050.02
2018-07-05T23:47:01.377Z,101046.59
2018-07-05T23:49:41.149Z,101050.18
2018-07-05T23:52:20.833Z,101051.58
2018-07-05T23:55:00.654Z,101048.82
2018-07-05T23:57:40.254Z,101054.05
